createdAt,value
2019-01-26T00:03:32.447Z,-1.40
2019-01-26T00:08:36.114Z,-1.40
2019-01-26T00:13:39.823Z,-1.40
2019-01-26T00:18:43.607Z,-1.30
2019-01-26T00:23:47.372Z,-1.30
2019-01-26T00:28:51.080Z,-1.30
2019-01-26T00:33:55.037Z,-1.30
2019-01-26T00:38:58.719Z,-1.30
2019-01-26T00:44:02.378Z,-1.30
2019-01-26T00:49:06.075Z,-1.20
2019-01-26T00:54:09.760Z,-1.20
2019-01-26T00:59:13.415Z,-1.20
2019-01-26T01:04:17.159Z,-1.10
2019-01-26T01:09:20.827Z,-1.10
2019-01-26T01:14:24.500Z,-1.00
2019-01-26T01:19:28.455Z,-1.10
2019-01-26T01:24:32.481Z,-1.00
2019-01-26T01:29:36.129Z,-1.00
2019-01-26T01:34:39.802Z,-1.00
2019-01-26T01:39:43.842Z,-1.00
2019-01-26T01:44:47.881Z,-1.00
2019-01-26T01:49:51.820Z,-0.90
2019-01-26T01:54:55.491Z,-0.90
2019-01-26T01:59:59.455Z,-1.00
2019-01-26T02:05:03.124Z,-0.90
2019-01-26T02:10:08.586Z,-0.90
2019-01-26T02:15:12.498Z,-1.00
2019-01-26T02:20:18.708Z,-1.00
2019-01-26T02:25:22.449Z,-0.90
2019-01-26T02:30:26.263Z,-1.00
2019-01-26T02:35:29.909Z,-1.00
2019-01-26T02:40:33.576Z,-1.00
2019-01-26T02:45:37.235Z,-1.00
2019-01-26T02:50:40.904Z,-1.00
2019-01-26T02:55:44.592Z,-1.00
2019-01-26T03:00:48.257Z,-1.00
2019-01-26T03:05:51.946Z,-1.00
2019-01-26T03:10:56.358Z,-0.90
2019-01-26T03:16:00.051Z,-1.00
2019-01-26T03:21:03.720Z,-1.00
2019-01-26T03:26:07.398Z,-0.90
2019-01-26T03:31:11.085Z,-0.90
2019-01-26T03:36:14.804Z,-0.90
2019-01-26T03:41:18.481Z,-0.90
2019-01-26T03:46:22.150Z,-0.90
2019-01-26T03:51:25.826Z,-0.80
2019-01-26T03:56:29.590Z,-0.80
2019-01-26T04:01:33.628Z,-0.70
2019-01-26T04:06:37.308Z,-0.70
2019-01-26T04:12:00.232Z,-0.70
2019-01-26T04:17:03.990Z,-0.60
2019-01-26T04:22:07.823Z,-0.60
2019-01-26T04:27:11.868Z,-0.60
2019-01-26T04:32:15.532Z,-0.50
2019-01-26T04:37:19.283Z,-0.50
2019-01-26T04:42:22.954Z,-0.50
2019-01-26T04:47:30.985Z,-0.50
2019-01-26T04:52:32.191Z,-0.40
2019-01-26T04:57:35.858Z,-0.40
2019-01-26T05:02:39.835Z,-0.40
2019-01-26T05:07:43.534Z,-0.30
2019-01-26T05:12:47.540Z,-0.30
2019-01-26T05:17:51.196Z,-0.30
2019-01-26T05:22:54.896Z,-0.20
2019-01-26T05:27:58.566Z,-0.20
2019-01-26T05:33:02.594Z,-0.20
2019-01-26T05:38:06.673Z,-0.10
2019-01-26T05:43:10.397Z,-0.10
2019-01-26T05:48:14.182Z,-0.10
2019-01-26T05:53:17.867Z,-0.10
2019-01-26T05:58:21.524Z,0.00
2019-01-26T06:03:25.315Z,0.00
2019-01-26T06:08:29.047Z,0.00
2019-01-26T06:13:32.784Z,0.00
2019-01-26T06:18:36.543Z,0.00
2019-01-26T06:23:40.202Z,0.10
2019-01-26T06:28:43.902Z,0.10
2019-01-26T06:33:47.583Z,0.10
2019-01-26T06:38:51.349Z,0.20
2019-01-26T06:43:55.071Z,0.20
2019-01-26T06:48:59.674Z,0.20
2019-01-26T06:54:04.503Z,0.30
2019-01-26T06:59:08.160Z,0.30
2019-01-26T07:04:14.279Z,0.30
2019-01-26T07:09:18.009Z,0.30
2019-01-26T07:14:21.719Z,0.30
2019-01-26T07:19:25.404Z,0.30
2019-01-26T07:24:29.662Z,0.30
2019-01-26T07:29:33.478Z,0.40
2019-01-26T07:34:37.212Z,0.40
2019-01-26T07:39:40.890Z,0.50
2019-01-26T07:44:44.588Z,0.50
2019-01-26T07:49:48.267Z,0.60
2019-01-26T07:54:51.962Z,0.60
2019-01-26T07:59:55.612Z,0.60
2019-01-26T08:04:59.307Z,0.70
2019-01-26T08:10:03.104Z,0.70
2019-01-26T08:15:08.686Z,0.80
2019-01-26T08:20:15.176Z,0.80
2019-01-26T08:25:18.951Z,0.90
2019-01-26T08:30:23.054Z,0.90
2019-01-26T08:35:26.860Z,1.00
2019-01-26T08:40:30.546Z,1.10
2019-01-26T08:45:34.226Z,1.20
2019-01-26T08:50:38.278Z,1.20
2019-01-26T08:55:41.959Z,1.30
2019-01-26T09:00:45.642Z,1.40
2019-01-26T09:06:14.413Z,1.50
2019-01-26T09:11:18.069Z,1.60
2019-01-26T09:16:22.726Z,1.60
2019-01-26T09:21:26.409Z,1.70
2019-01-26T09:26:30.082Z,1.80
2019-01-26T09:31:33.815Z,1.80
2019-01-26T09:36:37.596Z,1.90
2019-01-26T09:41:41.368Z,1.90
2019-01-26T09:46:45.037Z,2.00
2019-01-26T09:51:48.706Z,2.10
2019-01-26T09:56:52.645Z,2.10
2019-01-26T10:02:00.199Z,2.20
2019-01-26T10:07:03.971Z,2.20
2019-01-26T10:12:07.679Z,2.20
2019-01-26T10:17:11.484Z,2.30
2019-01-26T10:22:15.211Z,2.30
2019-01-26T10:27:18.947Z,2.40
2019-01-26T10:32:22.698Z,2.40
2019-01-26T10:37:28.726Z,2.40
2019-01-26T10:42:34.247Z,2.40
2019-01-26T10:47:38.250Z,2.50
2019-01-26T10:52:41.992Z,2.60
2019-01-26T10:57:45.727Z,2.60
2019-01-26T11:02:49.656Z,2.70
2019-01-26T11:07:53.423Z,2.70
2019-01-26T11:12:57.115Z,2.70
2019-01-26T11:18:00.860Z,2.70
2019-01-26T11:23:13.411Z,2.70
2019-01-26T11:28:17.094Z,2.80
2019-01-26T11:33:22.612Z,2.80
2019-01-26T11:38:26.759Z,2.80
2019-01-26T11:43:30.514Z,2.90
2019-01-26T11:48:38.927Z,2.90
2019-01-26T11:53:42.682Z,2.90
2019-01-26T11:58:46.359Z,2.90
2019-01-26T12:03:54.890Z,2.90
2019-01-26T12:08:58.683Z,3.00
2019-01-26T12:14:02.402Z,3.00
2019-01-26T12:19:06.096Z,3.00
2019-01-26T12:24:09.891Z,3.10
2019-01-26T12:29:13.653Z,3.10
2019-01-26T12:34:19.044Z,3.20
2019-01-26T12:39:22.731Z,3.20
2019-01-26T12:44:26.409Z,3.30
2019-01-26T12:49:32.912Z,3.30
2019-01-26T12:54:36.661Z,3.30
2019-01-26T12:59:40.324Z,3.30
2019-01-26T13:04:44.054Z,3.30
2019-01-26T13:09:47.736Z,3.30
2019-01-26T13:14:51.498Z,3.30
2019-01-26T13:19:55.187Z,3.40
2019-01-26T13:24:58.875Z,3.40
2019-01-26T13:30:04.758Z,3.40
2019-01-26T13:35:08.916Z,3.50
2019-01-26T13:40:15.406Z,3.60
2019-01-26T13:45:19.265Z,3.60
2019-01-26T13:50:22.935Z,3.60
2019-01-26T13:55:26.758Z,3.70
2019-01-26T14:00:33.329Z,3.70
2019-01-26T14:05:39.066Z,3.70
2019-01-26T14:10:42.720Z,3.80
2019-01-26T14:15:46.421Z,3.80
2019-01-26T14:20:50.166Z,3.90
2019-01-26T14:25:53.834Z,4.00
2019-01-26T14:31:00.491Z,4.00
2019-01-26T14:36:04.307Z,4.10
2019-01-26T14:41:07.990Z,4.10
2019-01-26T14:46:11.654Z,4.10
2019-01-26T14:51:16.405Z,4.10
2019-01-26T14:56:20.282Z,4.10
2019-01-26T15:01:24.702Z,4.10
2019-01-26T15:06:28.673Z,4.00
2019-01-26T15:11:32.869Z,4.00
2019-01-26T15:16:36.601Z,4.00
2019-01-26T15:21:40.912Z,4.00
2019-01-26T15:26:44.690Z,3.90
2019-01-26T15:31:48.505Z,3.80
2019-01-26T15:36:52.170Z,3.80
2019-01-26T15:41:56.019Z,3.70
2019-01-26T15:47:00.193Z,3.70
2019-01-26T15:52:04.350Z,3.70
2019-01-26T15:57:08.076Z,3.70
2019-01-26T16:02:11.821Z,3.60
2019-01-26T16:07:15.498Z,3.60
2019-01-26T16:12:19.152Z,3.60
2019-01-26T16:17:22.832Z,3.60
2019-01-26T16:22:26.646Z,3.50
2019-01-26T16:27:30.305Z,3.50
2019-01-26T16:32:34.872Z,3.50
2019-01-26T16:37:38.920Z,3.50
2019-01-26T16:42:42.763Z,3.50
2019-01-26T16:47:46.704Z,3.50
2019-01-26T16:52:51.384Z,3.40
2019-01-26T16:57:55.365Z,3.40
2019-01-26T17:02:59.593Z,3.40
2019-01-26T17:08:05.828Z,3.40
2019-01-26T17:13:09.675Z,3.40
2019-01-26T17:18:14.178Z,3.30
2019-01-26T17:23:18.623Z,3.30
2019-01-26T17:28:22.379Z,3.30
2019-01-26T17:33:26.153Z,3.30
2019-01-26T17:38:29.870Z,3.30
2019-01-26T17:43:33.659Z,3.30
2019-01-26T17:48:37.498Z,3.30
2019-01-26T17:53:42.182Z,3.30
2019-01-26T17:58:46.095Z,3.20
2019-01-26T18:03:50.217Z,3.20
2019-01-26T18:08:54.234Z,3.20
2019-01-26T18:13:58.068Z,3.20
2019-01-26T18:19:01.890Z,3.20
2019-01-26T18:24:06.302Z,3.20
2019-01-26T18:29:10.008Z,3.20
2019-01-26T18:34:13.695Z,3.20
2019-01-26T18:39:17.666Z,3.20
2019-01-26T18:44:21.665Z,3.20
2019-01-26T18:49:25.479Z,3.20
2019-01-26T18:54:29.638Z,3.20
2019-01-26T18:59:34.191Z,3.20
2019-01-26T19:04:45.687Z,3.20
2019-01-26T19:09:50.450Z,3.20
2019-01-26T19:14:54.370Z,3.20
2019-01-26T19:19:58.166Z,3.20
2019-01-26T19:25:02.064Z,3.20
2019-01-26T19:30:07.019Z,3.20
2019-01-26T19:35:11.173Z,3.20
2019-01-26T19:40:18.727Z,3.20
2019-01-26T19:45:22.884Z,3.20
2019-01-26T19:50:26.878Z,3.20
2019-01-26T19:55:30.554Z,3.20
2019-01-26T20:00:34.231Z,3.20
2019-01-26T20:05:37.928Z,3.10
2019-01-26T20:10:41.658Z,3.10
2019-01-26T20:15:45.329Z,3.10
2019-01-26T20:20:49.076Z,3.20
2019-01-26T20:25:52.856Z,3.20
2019-01-26T20:30:56.533Z,3.10
2019-01-26T20:36:00.281Z,3.10
2019-01-26T20:41:04.112Z,3.10
2019-01-26T20:46:08.186Z,3.10
2019-01-26T20:51:11.862Z,3.10
2019-01-26T20:56:15.537Z,3.20
2019-01-26T21:01:19.205Z,3.20
2019-01-26T21:06:22.875Z,3.20
2019-01-26T21:11:26.540Z,3.20
2019-01-26T21:16:30.207Z,3.20
2019-01-26T21:21:33.874Z,3.20
2019-01-26T21:26:37.533Z,3.20
2019-01-26T21:31:41.188Z,3.20
2019-01-26T21:36:44.863Z,3.20
2019-01-26T21:41:48.535Z,3.20
2019-01-26T21:46:52.195Z,3.20
2019-01-26T21:51:55.871Z,3.20
2019-01-26T21:56:59.543Z,3.20
2019-01-26T22:02:03.282Z,3.20
2019-01-26T22:07:07.055Z,3.20
2019-01-26T22:12:10.714Z,3.30
2019-01-26T22:17:14.376Z,3.30
2019-01-26T22:22:18.040Z,3.30
2019-01-26T22:27:22.074Z,3.30
2019-01-26T22:32:26.052Z,3.30
2019-01-26T22:37:29.792Z,3.40
2019-01-26T22:42:33.470Z,3.40
2019-01-26T22:47:37.411Z,3.40
2019-01-26T22:52:41.319Z,3.40
2019-01-26T22:57:45.109Z,3.50
2019-01-26T23:02:48.840Z,3.50
2019-01-26T23:07:57.028Z,3.50
2019-01-26T23:13:18.442Z,3.50
2019-01-26T23:19:00.851Z,3.60
2019-01-26T23:24:34.808Z,3.60
2019-01-26T23:30:05.015Z,3.60
2019-01-26T23:35:09.062Z,3.70
2019-01-26T23:40:12.883Z,3.70
2019-01-26T23:45:16.634Z,3.80
2019-01-26T23:50:20.308Z,3.80
2019-01-26T23:55:23.972Z,3.90
